Time;durP1;ratioP1;P1;durP2;ratioP2;P2;SDS_P1;SDS_P2;PMS_P1;PMS_P2;Temp;Humidity;BMP_temperature;BMP_pressure;BME280_temperature;BME280_humidity;BME280_pressure;Samples;Min_cycle;Max_cycle;Signal;HPM_P1;HPM_P2
2023/09/15 00:01:41;;;;;;;;;18.00;16.33;;;;;17.17;65.34;102019.78;5011209;28;9246;-70
2023/09/15 00:04:11;;;;;;;;;16.67;14.33;;;;;17.15;65.23;102020.00;4993194;28;9194;-69
2023/09/15 00:06:39;;;;;;;;;20.00;20.00;;;;;17.13;64.77;102013.06;5010889;28;9146;-69
2023/09/15 00:09:14;;;;;;;;;20.00;19.00;;;;;17.11;65.09;102015.19;5011166;28;9393;-67
2023/09/15 00:11:42;;;;;;;;;19.33;18.33;;;;;17.08;65.03;102012.88;5011073;28;9290;-68
2023/09/15 00:14:14;;;;;;;;;17.67;17.67;;;;;17.10;65.30;102013.53;4993330;28;9246;-69
2023/09/15 00:16:44;;;;;;;;;20.00;18.33;;;;;17.10;64.99;102003.47;4992770;28;9549;-68
2023/09/15 00:19:14;;;;;;;;;17.00;16.00;;;;;17.10;64.92;102008.06;4992942;28;9528;-68
2023/09/15 00:21:42;;;;;;;;;20.33;17.33;;;;;17.07;64.67;102003.88;5011015;28;9151;-67
2023/09/15 00:24:09;;;;;;;;;21.67;17.67;;;;;17.06;64.63;102007.66;4993416;28;9426;-68
2023/09/15 00:26:36;;;;;;;;;15.00;15.00;;;;;17.05;64.79;102005.97;5010468;28;9223;-68
2023/09/15 00:29:04;;;;;;;;;19.33;18.67;;;;;17.02;65.16;102003.69;4993242;28;9174;-69
2023/09/15 00:31:31;;;;;;;;;19.33;18.33;;;;;16.99;65.17;102006.81;5010789;28;9212;-68
2023/09/15 00:33:58;;;;;;;;;17.33;16.67;;;;;16.96;65.05;102007.22;5009463;28;9410;-69
2023/09/15 00:36:25;;;;;;;;;19.33;18.33;;;;;16.96;65.11;102008.06;5010165;28;9313;-69
2023/09/15 00:38:51;;;;;;;;;15.33;14.00;;;;;16.96;65.18;102005.34;4992952;28;9324;-68
2023/09/15 00:41:18;;;;;;;;;16.00;16.00;;;;;16.94;65.22;101998.44;5010486;28;9012;-68
2023/09/15 00:43:44;;;;;;;;;16.67;15.33;;;;;16.93;65.20;102002.19;4992776;28;9235;-67
2023/09/15 00:46:12;;;;;;;;;15.67;15.33;;;;;16.93;65.13;102005.75;4992645;28;9282;-68
2023/09/15 00:48:39;;;;;;;;;16.00;14.67;;;;;16.92;65.36;102001.34;5010548;28;9293;-68
2023/09/15 00:51:07;;;;;;;;;15.33;13.67;;;;;16.92;65.23;102000.53;4992734;28;9302;-68
2023/09/15 00:53:36;;;;;;;;;16.67;16.67;;;;;16.91;65.64;101998.84;4976891;28;9218;-68
2023/09/15 00:56:03;;;;;;;;;15.67;14.33;;;;;16.89;65.41;102001.75;4992309;28;10063;-70
2023/09/15 00:58:31;;;;;;;;;18.00;18.00;;;;;16.88;65.40;102002.81;4992017;28;9085;-68
2023/09/15 01:00:58;;;;;;;;;17.00;17.00;;;;;16.86;65.72;101993.22;4992677;28;9442;-69
2023/09/15 01:03:28;;;;;;;;;18.33;17.67;;;;;16.84;65.70;102004.28;4992794;28;9142;-67
2023/09/15 01:05:55;;;;;;;;;18.00;16.00;;;;;16.82;65.82;101998.22;5009972;28;9427;-70
2023/09/15 01:08:22;;;;;;;;;18.00;17.25;;;;;16.79;65.66;101991.31;4992236;28;9313;-68
2023/09/15 01:10:49;;;;;;;;;16.67;16.00;;;;;16.78;65.59;101986.09;5009894;28;9413;-67
2023/09/15 01:13:15;;;;;;;;;20.00;16.67;;;;;16.77;65.71;101993.41;5008782;28;10078;-68
2023/09/15 01:15:54;;;;;;;;;17.33;15.33;;;;;16.75;65.83;101990.03;5010342;28;9295;-68
2023/09/15 01:18:39;;;;;;;;;15.67;15.33;;;;;16.74;65.68;101982.09;5008062;28;9381;-68
2023/09/15 01:21:36;;;;;;;;;22.00;18.00;;;;;16.73;65.82;101983.13;5009033;28;9162;-68
2023/09/15 01:24:13;;;;;;;;;14.00;10.00;;;;;16.71;65.74;101977.88;5010355;28;9164;-68
2023/09/15 01:27:04;;;;;;;;;11.33;11.33;;;;;16.70;65.73;101980.81;5008700;28;9204;-68
2023/09/15 01:29:53;;;;;;;;;17.67;17.67;;;;;16.69;66.30;101982.69;5008419;28;9224;-69
2023/09/15 01:32:21;;;;;;;;;12.00;11.67;;;;;16.68;66.23;101978.28;5010213;28;9386;-68
2023/09/15 01:34:53;;;;;;;;;16.00;16.00;;;;;16.67;66.11;101975.78;5010031;28;9227;-68
2023/09/15 01:37:20;;;;;;;;;19.00;18.67;;;;;16.65;66.27;101973.28;4992206;28;9231;-68
2023/09/15 01:39:47;;;;;;;;;22.00;21.33;;;;;16.62;66.06;101978.28;4992219;28;9570;-68
2023/09/15 01:42:14;;;;;;;;;19.00;18.33;;;;;16.60;66.24;101973.03;4992459;28;9372;-68
2023/09/15 01:44:40;;;;;;;;;20.33;19.00;;;;;16.56;66.14;101969.91;4992474;28;9378;-68
2023/09/15 01:47:08;;;;;;;;;20.67;16.00;;;;;16.56;66.41;101966.34;4991867;28;9486;-68
2023/09/15 01:49:37;;;;;;;;;18.67;16.33;;;;;16.54;66.39;101963.84;4992317;28;9372;-69
2023/09/15 01:52:04;;;;;;;;;14.67;14.67;;;;;16.53;66.35;101974.94;4992302;28;9413;-68
2023/09/15 01:54:31;;;;;;;;;20.75;20.75;;;;;16.52;66.70;101967.78;4992289;28;9298;-67
2023/09/15 01:56:58;;;;;;;;;16.00;16.00;;;;;16.50;66.51;101957.16;5009845;28;9568;-68
2023/09/15 01:59:25;;;;;;;;;18.00;17.00;;;;;16.49;66.59;101966.34;4992349;28;9456;-68
2023/09/15 02:01:51;;;;;;;;;17.50;17.50;;;;;16.48;66.46;101964.66;4992248;28;9242;-68
2023/09/15 02:04:18;;;;;;;;;19.00;19.00;;;;;16.48;66.59;101966.53;5008708;28;10243;-68
2023/09/15 02:06:45;;;;;;;;;18.33;17.00;;;;;16.45;66.77;101966.97;5007617;28;9304;-69
2023/09/15 02:09:14;;;;;;;;;15.67;14.33;;;;;16.44;66.87;101963.38;5009359;28;9389;-68
2023/09/15 02:11:41;;;;;;;;;15.33;15.33;;;;;16.42;67.11;101962.78;4995839;28;9230;-67
2023/09/15 02:14:08;;;;;;;;;21.25;18.50;;;;;16.41;66.55;101952.94;4995781;28;9328;-68
2023/09/15 02:16:35;;;;;;;;;15.33;15.33;;;;;16.40;67.13;101951.25;5012970;28;9442;-68
2023/09/15 02:19:02;;;;;;;;;19.50;19.50;;;;;16.39;66.88;101951.47;5012944;28;9534;-69
2023/09/15 02:21:29;;;;;;;;;15.00;15.00;;;;;16.37;67.08;101950.84;5013697;28;9458;-68
2023/09/15 02:23:57;;;;;;;;;16.00;16.00;;;;;16.37;66.67;101948.13;4995495;28;9345;-68
2023/09/15 02:26:23;;;;;;;;;21.33;19.33;;;;;16.34;66.89;101948.53;4995225;28;9387;-67
2023/09/15 02:28:50;;;;;;;;;18.33;18.33;;;;;16.32;66.99;101949.56;4995555;28;9465;-68
2023/09/15 02:31:17;;;;;;;;;20.00;19.67;;;;;16.31;66.91;101958.75;5013202;28;9422;-69
2023/09/15 02:33:45;;;;;;;;;22.00;20.75;;;;;16.29;67.00;101947.28;4995045;28;9314;-67
2023/09/15 02:36:12;;;;;;;;;20.00;19.75;;;;;16.26;67.13;101949.56;5012517;28;10399;-69
2023/09/15 02:38:38;;;;;;;;;16.75;16.25;;;;;16.24;67.00;101947.03;4995241;28;9546;-68
2023/09/15 02:41:05;;;;;;;;;25.75;19.75;;;;;16.23;67.08;101944.53;5011922;28;9527;-68
2023/09/15 02:43:31;;;;;;;;;19.00;18.25;;;;;16.22;67.39;101951.00;5011462;28;9474;-67
2023/09/15 02:46:03;;;;;;;;;24.25;19.50;;;;;16.20;67.01;101944.94;5012573;28;9617;-70
2023/09/15 02:48:31;;;;;;;;;20.50;19.50;;;;;16.18;67.39;101945.16;4994790;28;9547;-68
2023/09/15 02:50:58;;;;;;;;;21.00;20.25;;;;;16.17;67.45;101946.19;5012380;28;9472;-68
2023/09/15 02:53:25;;;;;;;;;22.50;20.00;;;;;16.16;67.78;101940.94;4994882;28;9615;-68
2023/09/15 02:55:57;;;;;;;;;24.75;21.00;;;;;16.13;67.90;101936.78;5012356;28;10307;-68
2023/09/15 02:58:24;;;;;;;;;16.25;14.75;;;;;16.10;67.86;101939.06;5012281;28;9690;-69
2023/09/15 03:00:51;;;;;;;;;24.75;22.75;;;;;16.07;67.74;101932.97;5012273;28;9539;-68
2023/09/15 03:03:19;;;;;;;;;23.75;22.50;;;;;16.08;67.82;101931.09;5010919;28;9744;-68
2023/09/15 03:05:46;;;;;;;;;23.25;23.25;;;;;16.05;67.62;101926.09;4994689;28;9527;-67
2023/09/15 03:08:14;;;;;;;;;27.50;23.75;;;;;16.03;67.88;101933.59;5010606;28;9599;-68
2023/09/15 03:10:41;;;;;;;;;25.75;25.75;;;;;16.00;67.87;101932.16;4994566;28;9693;-69
2023/09/15 03:13:08;;;;;;;;;23.00;20.75;;;;;15.99;68.11;101941.31;4994309;28;9813;-68
2023/09/15 03:15:35;;;;;;;;;26.00;24.75;;;;;15.98;68.19;101938.81;5012127;28;9720;-68
2023/09/15 03:18:04;;;;;;;;;21.50;21.25;;;;;15.96;68.09;101936.31;4993745;28;9711;-69
2023/09/15 03:20:31;;;;;;;;;28.00;23.50;;;;;15.94;68.63;101935.66;4994002;28;9688;-69
2023/09/15 03:22:59;;;;;;;;;19.75;19.50;;;;;15.92;68.73;101935.03;5011952;28;9882;-69
2023/09/15 03:25:26;;;;;;;;;21.25;21.25;;;;;15.92;68.77;101942.31;4994455;28;9514;-68
2023/09/15 03:27:53;;;;;;;;;22.75;21.25;;;;;15.91;68.63;101927.06;4993965;28;10436;-68
2023/09/15 03:30:20;;;;;;;;;26.25;24.75;;;;;15.88;68.28;101925.63;4993917;28;9625;-69
2023/09/15 03:32:47;;;;;;;;;22.25;20.25;;;;;15.89;68.67;101926.47;4994252;28;10463;-67
2023/09/15 03:35:14;;;;;;;;;25.25;25.25;;;;;15.86;68.42;101929.56;4993932;28;9552;-67
2023/09/15 03:37:41;;;;;;;;;27.75;24.00;;;;;15.83;68.66;101917.22;5011376;28;9846;-68
2023/09/15 03:40:11;;;;;;;;;22.00;20.25;;;;;15.81;68.67;101917.44;4993980;28;9771;-69
2023/09/15 03:42:39;;;;;;;;;25.25;23.00;;;;;15.79;68.54;101914.06;4994222;28;10515;-69
2023/09/15 03:45:09;;;;;;;;;24.00;22.75;;;;;15.76;68.92;101919.09;4993588;28;9797;-69
2023/09/15 03:47:36;;;;;;;;;20.00;20.00;;;;;15.74;69.05;101913.84;4993735;28;9812;-68
2023/09/15 03:50:06;;;;;;;;;20.25;20.25;;;;;15.73;69.29;101914.91;4993640;28;9622;-68
2023/09/15 03:52:32;;;;;;;;;17.75;14.25;;;;;15.72;69.26;101912.41;5011616;28;9530;-68
2023/09/15 03:55:00;;;;;;;;;20.50;19.75;;;;;15.71;69.12;101905.28;4993840;28;9784;-67
2023/09/15 03:57:28;;;;;;;;;19.50;18.50;;;;;15.70;68.99;101909.03;4993269;28;9510;-68
2023/09/15 03:59:56;;;;;;;;;21.25;21.25;;;;;15.68;68.77;101906.53;5011157;28;9766;-69
2023/09/15 04:02:23;;;;;;;;;20.75;19.00;;;;;15.67;69.16;101915.69;4993379;28;9849;-68
2023/09/15 04:04:51;;;;;;;;;21.00;20.75;;;;;15.64;69.04;101907.94;5010084;28;9687;-69
2023/09/15 04:07:18;;;;;;;;;24.50;22.50;;;;;15.62;69.17;101910.00;5009657;28;9775;-68
2023/09/15 04:09:44;;;;;;;;;21.50;21.25;;;;;15.58;69.39;101908.75;4993294;28;9695;-69
2023/09/15 04:12:11;;;;;;;;;22.50;22.50;;;;;15.56;69.48;101908.13;5009820;28;10663;-67
2023/09/15 04:14:37;;;;;;;;;24.00;21.50;;;;;15.52;69.29;101896.81;5009852;28;9867;-69
2023/09/15 04:17:04;;;;;;;;;25.50;23.50;;;;;15.50;69.31;101903.47;4992986;28;9874;-68
2023/09/15 04:19:31;;;;;;;;;22.50;22.25;;;;;15.47;69.60;101901.16;4977247;28;10584;-68
2023/09/15 04:21:59;;;;;;;;;24.25;23.50;;;;;15.44;69.85;101898.88;4993188;28;9998;-67
2023/09/15 04:24:26;;;;;;;;;25.00;22.00;;;;;15.42;69.59;101909.06;5009244;28;9927;-68
2023/09/15 04:26:53;;;;;;;;;19.75;19.75;;;;;15.40;70.00;101903.84;5009536;28;9703;-69
2023/09/15 04:29:20;;;;;;;;;23.25;22.00;;;;;15.38;70.09;101903.19;5009630;28;9708;-68
2023/09/15 04:31:46;;;;;;;;;20.50;19.75;;;;;15.38;70.11;101899.66;5009379;28;9844;-67
2023/09/15 04:34:14;;;;;;;;;23.25;21.50;;;;;15.36;70.08;101902.59;5007147;28;9790;-68
2023/09/15 04:36:42;;;;;;;;;19.75;19.75;;;;;15.34;69.99;101899.22;5010211;28;9882;-69
2023/09/15 04:39:10;;;;;;;;;23.25;21.00;;;;;15.35;69.83;101903.59;4992565;28;9823;-69
2023/09/15 04:41:37;;;;;;;;;23.00;20.25;;;;;15.33;69.69;101898.38;5009406;28;10572;-68
2023/09/15 04:44:03;;;;;;;;;26.25;22.50;;;;;15.32;69.98;101894.00;5010759;28;9778;-68
2023/09/15 04:46:30;;;;;;;;;25.50;24.25;;;;;15.31;69.71;101903.19;5009135;28;9787;-68
2023/09/15 04:48:57;;;;;;;;;28.75;27.50;;;;;15.30;70.16;101898.78;4992691;28;9773;-68
2023/09/15 04:51:23;;;;;;;;;23.25;21.50;;;;;15.28;69.81;101900.03;4992619;28;9784;-68
2023/09/15 04:53:50;;;;;;;;;23.25;23.00;;;;;15.25;69.75;101901.25;5009460;28;9759;-68
2023/09/15 04:56:17;;;;;;;;;21.75;21.50;;;;;15.21;69.98;101896.44;5009680;28;9765;-68
2023/09/15 04:58:45;;;;;;;;;22.00;21.50;;;;;15.22;70.01;101907.06;5013857;28;9719;-68
2023/09/15 05:01:16;;;;;;;;;23.25;20.00;;;;;15.20;69.63;101902.91;5010291;28;9845;-68
2023/09/15 05:03:44;;;;;;;;;23.25;20.00;;;;;15.17;69.73;101898.69;5009185;28;9939;-68
2023/09/15 05:06:11;;;;;;;;;28.25;27.00;;;;;15.13;70.38;101897.41;4991978;28;10061;-67
2023/09/15 05:08:37;;;;;;;;;30.75;28.25;;;;;15.13;70.08;101902.84;5008465;28;9882;-67
2023/09/15 05:11:04;;;;;;;;;19.75;19.75;;;;;15.11;69.67;101904.06;4992770;28;10108;-69
2023/09/15 05:13:30;;;;;;;;;21.50;19.00;;;;;15.10;69.94;101908.66;5010280;28;9944;-69
2023/09/15 05:15:57;;;;;;;;;23.00;22.00;;;;;15.08;70.07;101911.56;4992598;28;9884;-68
2023/09/15 05:18:24;;;;;;;;;24.50;24.00;;;;;15.07;69.95;101907.19;4992155;28;10109;-67
2023/09/15 05:20:50;;;;;;;;;23.75;21.50;;;;;15.06;70.18;101902.78;5009700;28;9858;-68
2023/09/15 05:23:16;;;;;;;;;26.50;23.50;;;;;15.07;70.11;101914.50;4992512;28;9913;-68
2023/09/15 05:25:43;;;;;;;;;26.25;25.50;;;;;15.07;70.02;101909.06;5008732;28;10639;-67
2023/09/15 05:28:10;;;;;;;;;25.75;23.25;;;;;15.06;69.96;101902.78;5008519;28;10791;-68
2023/09/15 05:30:36;;;;;;;;;27.75;23.50;;;;;15.05;70.24;101906.53;4992453;28;9846;-69
2023/09/15 05:33:08;;;;;;;;;18.25;18.00;;;;;15.06;70.11;101905.50;4992653;28;9793;-68
2023/09/15 05:35:36;;;;;;;;;23.25;19.50;;;;;15.07;69.93;101909.91;5008558;28;9830;-69
2023/09/15 05:38:03;;;;;;;;;25.50;19.75;;;;;15.06;70.17;101912.81;5006674;28;9775;-69
2023/09/15 05:40:29;;;;;;;;;26.00;21.25;;;;;15.06;70.24;101910.09;5008790;28;9773;-67
2023/09/15 05:42:58;;;;;;;;;25.50;21.50;;;;;15.04;70.03;101912.19;5008591;28;9982;-68
2023/09/15 05:45:24;;;;;;;;;23.75;21.00;;;;;15.02;70.09;101911.53;5012228;28;9875;-68
2023/09/15 05:47:51;;;;;;;;;21.75;20.00;;;;;15.02;70.42;101906.94;5013190;28;9929;-69
2023/09/15 05:50:18;;;;;;;;;18.75;18.00;;;;;15.05;70.24;101911.97;4996112;28;9970;-67
2023/09/15 05:52:44;;;;;;;;;16.75;16.75;;;;;15.05;70.33;101909.25;5013482;28;9811;-68
2023/09/15 05:55:11;;;;;;;;;22.00;19.50;;;;;15.05;70.22;101908.41;5013483;28;9778;-70
2023/09/15 05:57:37;;;;;;;;;17.50;15.75;;;;;15.06;70.16;101907.38;5013282;28;9710;-68
2023/09/15 06:00:05;;;;;;;;;19.50;19.50;;;;;15.08;70.47;101908.88;5013376;28;9667;-68
2023/09/15 06:02:37;;;;;;;;;19.00;17.50;;;;;15.11;70.17;101910.34;5012151;28;9684;-69
2023/09/15 06:05:04;;;;;;;;;23.25;18.50;;;;;15.15;70.17;101910.78;5013273;28;9684;-68
2023/09/15 06:07:30;;;;;;;;;22.00;20.75;;;;;15.15;70.13;101911.63;4995344;28;9780;-68
2023/09/15 06:09:57;;;;;;;;;23.00;20.00;;;;;15.16;70.24;101920.59;5049866;23;9782;-66
2023/09/15 06:12:23;;;;;;;;;17.75;17.25;;;;;15.16;70.09;101918.72;5031881;28;9705;-68
2023/09/15 06:14:50;;;;;;;;;19.50;17.00;;;;;15.16;69.78;101921.44;5032754;28;9752;-67
2023/09/15 06:17:17;;;;;;;;;18.75;16.00;;;;;15.17;69.92;101914.97;5030902;28;9459;-68
2023/09/15 06:19:43;;;;;;;;;15.25;14.75;;;;;15.18;70.14;101919.34;5032644;28;9723;-67
2023/09/15 06:22:10;;;;;;;;;14.50;14.00;;;;;15.21;70.24;101921.69;5032935;28;9532;-68
2023/09/15 06:24:36;;;;;;;;;18.00;15.75;;;;;15.22;69.94;101926.06;5033066;28;9602;-67
2023/09/15 06:27:04;;;;;;;;;15.50;15.50;;;;;15.27;69.88;101926.31;5029919;28;9564;-67
2023/09/15 06:29:30;;;;;;;;;14.75;13.75;;;;;15.29;69.93;101918.81;5014756;28;9669;-68
2023/09/15 06:31:57;;;;;;;;;19.00;19.00;;;;;15.33;69.69;101920.09;5032061;28;9457;-68
2023/09/15 06:34:23;;;;;;;;;18.00;15.25;;;;;15.32;69.82;101928.44;5031498;28;9525;-67
2023/09/15 06:36:50;;;;;;;;;15.00;14.00;;;;;15.31;69.67;101922.19;5032361;28;9585;-68
2023/09/15 06:39:18;;;;;;;;;13.33;12.33;;;;;15.35;69.69;101930.72;5014658;28;9398;-67
2023/09/15 06:41:45;;;;;;;;;13.33;12.67;;;;;15.36;69.87;101929.72;5030852;28;9386;-68
2023/09/15 06:44:21;;;;;;;;;13.00;11.00;;;;;15.40;69.70;101930.16;5014649;28;9383;-67
2023/09/15 06:46:47;;;;;;;;;17.00;15.25;;;;;15.45;69.87;101933.09;5031809;28;9374;-67
2023/09/15 06:49:16;;;;;;;;;12.67;12.67;;;;;15.50;69.83;101928.72;5014621;28;9501;-69
2023/09/15 06:51:43;;;;;;;;;11.00;11.00;;;;;15.55;69.35;101930.84;5014480;28;9340;-67
2023/09/15 06:54:10;;;;;;;;;11.00;11.00;;;;;15.57;69.37;101926.06;5032107;28;9299;-67
2023/09/15 06:56:37;;;;;;;;;15.67;15.67;;;;;15.61;69.13;101921.91;5030863;28;9392;-67
2023/09/15 06:59:03;;;;;;;;;15.67;14.67;;;;;15.60;69.20;101920.25;5030174;28;9446;-66
2023/09/15 07:01:30;;;;;;;;;14.00;11.33;;;;;15.64;68.97;101926.09;5032055;28;9294;-66
2023/09/15 07:03:56;;;;;;;;;17.67;14.33;;;;;15.64;69.05;101913.38;5031743;28;9380;-67
2023/09/15 07:06:23;;;;;;;;;16.00;13.67;;;;;15.64;68.85;101912.50;5013873;28;9463;-67
2023/09/15 07:08:49;;;;;;;;;12.00;11.33;;;;;15.64;68.86;101913.38;5013948;28;9453;-67
2023/09/15 07:11:16;;;;;;;;;15.00;12.00;;;;;15.68;68.68;101916.56;5014210;28;9925;-66
2023/09/15 07:13:50;;;;;;;;;12.67;10.33;;;;;15.71;68.46;101908.81;5029154;28;9997;-66
2023/09/15 07:16:18;;;;;;;;;10.00;10.00;;;;;15.78;68.57;101914.28;4997522;28;9339;-67
2023/09/15 07:18:44;;;;;;;;;15.75;15.75;;;;;15.72;68.66;101918.66;5031219;28;9247;-67
2023/09/15 07:21:11;;;;;;;;;14.00;13.00;;;;;15.74;68.46;101916.56;4997642;28;9529;-66
2023/09/15 07:23:37;;;;;;;;;12.67;12.67;;;;;15.79;68.81;101926.81;5031448;28;9471;-68
2023/09/15 07:26:04;;;;;;;;;10.33;9.00;;;;;15.82;68.31;101921.81;5031160;28;9374;-67
2023/09/15 07:28:31;;;;;;;;;10.33;10.00;;;;;15.88;68.31;101920.19;5031114;28;9286;-68
2023/09/15 07:31:06;;;;;;;;;13.00;9.67;;;;;15.92;68.35;101916.03;5029753;28;10020;-67
2023/09/15 07:33:33;;;;;;;;;9.67;9.67;;;;;15.97;68.14;101912.72;5013471;28;9328;-67
2023/09/15 07:36:00;;;;;;;;;10.00;10.00;;;;;16.02;68.21;101908.31;5029465;28;9950;-66
2023/09/15 07:38:27;;;;;;;;;9.00;7.67;;;;;16.05;68.06;101915.25;5030741;28;9272;-67
2023/09/15 07:40:57;;;;;;;;;10.67;9.33;;;;;16.10;67.96;101910.03;5030428;28;9313;-67
2023/09/15 07:43:24;;;;;;;;;13.67;12.33;;;;;16.11;68.08;101900.00;5031239;28;9223;-68
2023/09/15 07:45:50;;;;;;;;;19.33;17.00;;;;;16.01;68.01;101895.78;5029592;28;9305;-67
2023/09/15 07:48:17;;;;;;;;;15.33;15.33;;;;;16.07;68.14;101899.56;5013255;28;9299;-67
2023/09/15 07:50:44;;;;;;;;;12.00;12.00;;;;;16.12;67.78;101902.50;5030773;28;9222;-67
2023/09/15 07:53:10;;;;;;;;;12.00;12.00;;;;;16.16;67.73;101895.59;5031208;28;9304;-68
2023/09/15 07:55:37;;;;;;;;;9.33;8.00;;;;;16.24;68.05;101891.84;5030976;28;9311;-67
2023/09/15 07:58:04;;;;;;;;;7.00;5.67;;;;;16.29;67.83;101895.66;5030704;28;9089;-68
2023/09/15 08:00:30;;;;;;;;;9.33;5.67;;;;;16.36;67.59;101892.09;5013316;28;9274;-68
2023/09/15 08:02:57;;;;;;;;;5.33;5.33;;;;;16.39;67.46;101883.53;5028545;28;9157;-67
2023/09/15 08:05:24;;;;;;;;;6.67;6.67;;;;;16.44;67.75;101884.56;5013367;28;9723;-67
2023/09/15 08:07:50;;;;;;;;;8.67;8.67;;;;;16.44;67.31;101883.75;5029196;28;9771;-68
2023/09/15 08:10:19;;;;;;;;;10.67;10.00;;;;;16.43;67.51;101887.50;5030766;28;9177;-67
2023/09/15 08:12:45;;;;;;;;;12.00;9.00;;;;;16.45;67.92;101885.44;5031073;28;9231;-66
2023/09/15 08:15:14;;;;;;;;;10.33;9.33;;;;;16.51;67.69;101892.75;5031134;28;9099;-68
2023/09/15 08:17:40;;;;;;;;;8.00;8.00;;;;;16.56;67.59;101893.78;5011469;28;8921;-67
2023/09/15 08:20:07;;;;;;;;;10.33;9.33;;;;;16.59;67.57;101886.28;5030965;28;9095;-68
2023/09/15 08:22:37;;;;;;;;;10.33;9.00;;;;;16.60;67.33;101887.94;5031012;28;9075;-67
2023/09/15 08:25:05;;;;;;;;;13.00;10.00;;;;;16.58;67.36;101881.88;5031471;28;8983;-67
2023/09/15 08:27:32;;;;;;;;;7.00;5.33;;;;;16.61;67.46;101885.03;5013449;28;9083;-67
2023/09/15 08:29:59;;;;;;;;;7.00;7.00;;;;;16.65;67.11;101880.84;4994129;28;9016;-68
2023/09/15 08:32:26;;;;;;;;;10.67;8.00;;;;;16.70;67.27;101886.47;5025749;28;9095;-67
2023/09/15 08:34:57;;;;;;;;;7.33;7.33;;;;;16.77;66.70;101884.63;5029312;28;8935;-68
2023/09/15 08:37:24;;;;;;;;;6.67;6.67;;;;;16.82;66.73;101886.72;5030311;28;9000;-68
2023/09/15 08:39:50;;;;;;;;;6.33;6.33;;;;;16.89;66.44;101889.41;5030329;28;8950;-67
2023/09/15 08:42:25;;;;;;;;;7.00;6.33;;;;;16.94;65.93;101890.47;5030369;28;9744;-68
2023/09/15 08:44:53;;;;;;;;;8.75;5.75;;;;;16.99;66.22;101882.50;5024054;28;8957;-67
2023/09/15 08:47:20;;;;;;;;;5.75;5.75;;;;;17.03;65.78;101893.81;4992974;28;8827;-68
2023/09/15 08:49:49;;;;;;;;;9.33;7.67;;;;;17.08;65.96;101885.00;4992942;28;8850;-67
2023/09/15 08:52:17;;;;;;;;;5.00;5.00;;;;;17.16;65.73;101890.22;5010522;28;9199;-68
2023/09/15 08:54:47;;;;;;;;;5.25;4.00;;;;;17.21;66.07;101891.25;5010357;28;8850;-67
2023/09/15 08:57:15;;;;;;;;;4.50;4.50;;;;;17.25;65.68;101887.06;4992498;28;8931;-67
2023/09/15 08:59:42;;;;;;;;;5.25;4.75;;;;;17.33;65.27;101890.59;5010097;28;8938;-68
2023/09/15 09:02:11;;;;;;;;;6.25;5.00;;;;;17.35;64.86;101885.81;5008684;28;8949;-67
2023/09/15 09:04:38;;;;;;;;;4.50;4.50;;;;;17.39;64.62;101889.78;5011005;28;9641;-68
2023/09/15 09:07:05;;;;;;;;;4.50;4.00;;;;;17.44;64.77;101879.91;5029516;28;8828;-67
2023/09/15 09:09:33;;;;;;;;;9.33;9.00;;;;;17.52;64.97;101884.28;5029873;28;8833;-68
2023/09/15 09:12:00;;;;;;;;;9.67;9.67;;;;;17.58;64.99;101885.28;5028733;28;9722;-67
2023/09/15 09:14:27;;;;;;;;;8.00;8.00;;;;;17.58;65.23;101888.00;5030204;28;8915;-67
2023/09/15 09:16:53;;;;;;;;;12.00;10.67;;;;;17.64;65.16;101881.72;5012080;28;8861;-68
2023/09/15 09:19:20;;;;;;;;;10.50;7.00;;;;;17.65;64.67;101881.50;5002826;28;9004;-68
2023/09/15 09:21:47;;;;;;;;;9.33;9.00;;;;;17.65;64.62;101881.50;4996565;28;8832;-68
2023/09/15 09:24:14;;;;;;;;;8.75;7.50;;;;;17.67;64.63;101881.28;5014203;28;8951;-67
2023/09/15 09:26:53;;;;;;;;;10.75;9.50;;;;;17.70;63.06;101872.66;5012534;28;9548;-66
2023/09/15 09:29:30;;;;;;;;;6.25;6.25;;;;;17.77;62.81;101871.63;5014140;28;8836;-67
2023/09/15 09:31:56;;;;;;;;;3.00;3.00;;;;;17.82;62.40;101864.69;5014091;28;8819;-68
2023/09/15 09:34:24;;;;;;;;;7.00;6.75;;;;;17.82;61.92;101862.78;5014972;28;8862;-68
2023/09/15 09:37:10;;;;;;;;;5.25;5.25;;;;;17.87;61.82;101851.28;5013428;28;8925;-67
2023/09/15 09:39:37;;;;;;;;;5.25;4.25;;;;;17.93;61.65;101845.78;4996143;28;8867;-68
2023/09/15 09:42:05;;;;;;;;;5.25;5.25;;;;;18.01;61.61;101855.56;5013957;28;8859;-67
2023/09/15 09:44:36;;;;;;;;;8.00;7.00;;;;;18.06;61.21;101855.75;5013635;28;8839;-67
2023/09/15 09:47:07;;;;;;;;;5.00;5.00;;;;;18.11;61.46;101844.19;5013400;28;8831;-67
2023/09/15 09:49:35;;;;;;;;;7.25;6.75;;;;;18.09;61.09;101855.31;5013573;28;8856;-66
2023/09/15 09:52:03;;;;;;;;;6.75;6.50;;;;;18.11;61.11;101847.78;5013756;28;8841;-67
2023/09/15 09:54:31;;;;;;;;;8.25;7.50;;;;;18.11;60.89;101845.03;5033456;28;8911;-68
2023/09/15 09:56:58;;;;;;;;;13.25;10.75;;;;;18.12;60.32;101843.16;5032794;28;8936;-67
2023/09/15 09:59:27;;;;;;;;;10.00;8.25;;;;;18.16;60.27;101837.03;5032910;28;8864;-67
2023/09/15 10:01:53;;;;;;;;;11.00;8.50;;;;;18.20;60.03;101832.81;5015383;28;8841;-68
2023/09/15 10:04:21;;;;;;;;;6.25;6.25;;;;;18.26;59.92;101829.19;5033302;28;8887;-68
2023/09/15 10:06:49;;;;;;;;;10.00;10.00;;;;;18.34;59.73;101833.53;5020840;28;9582;-67
2023/09/15 10:09:16;;;;;;;;;8.75;8.00;;;;;18.37;59.17;101844.00;4995721;28;8835;-67
2023/09/15 10:11:43;;;;;;;;;11.50;9.50;;;;;18.39;58.58;101824.69;5013352;28;8863;-67
2023/09/15 10:14:10;;;;;;;;;14.50;10.00;;;;;18.40;58.02;101827.22;5013234;28;8928;-66
2023/09/15 10:16:37;;;;;;;;;9.50;8.00;;;;;18.44;57.82;101822.16;5011653;28;8812;-67
2023/09/15 10:19:04;;;;;;;;;9.25;8.25;;;;;18.49;58.05;101834.06;4995430;28;9568;-67
2023/09/15 10:21:33;;;;;;;;;10.50;10.50;;;;;18.49;58.03;101822.31;4996332;28;8871;-67
2023/09/15 10:24:05;;;;;;;;;11.00;10.50;;;;;18.51;58.00;101820.19;5012870;28;8870;-67
2023/09/15 10:26:33;;;;;;;;;13.00;13.00;;;;;18.55;57.74;101824.13;5012846;28;8855;-68
2023/09/15 10:29:01;;;;;;;;;8.25;8.25;;;;;18.61;57.53;101820.53;5012838;28;9332;-67
2023/09/15 10:31:30;;;;;;;;;9.75;9.75;;;;;18.64;57.51;101822.81;4994131;28;8839;-67
2023/09/15 10:34:01;;;;;;;;;8.00;7.00;;;;;18.68;56.66;101818.59;4978872;28;9592;-67
2023/09/15 10:36:28;;;;;;;;;9.50;7.00;;;;;18.75;56.81;101826.72;5012469;28;8827;-67
2023/09/15 10:38:57;;;;;;;;;10.25;10.25;;;;;18.80;56.60;101817.84;5019637;28;8925;-67
2023/09/15 10:41:28;;;;;;;;;7.75;7.25;;;;;18.85;56.38;101809.84;5012696;28;8847;-68
2023/09/15 10:43:55;;;;;;;;;8.50;7.25;;;;;18.88;56.27;101799.31;4995301;28;8848;-68
2023/09/15 10:46:42;;;;;;;;;8.50;8.50;;;;;18.91;56.26;101789.84;4994836;28;8836;-67
2023/09/15 10:49:19;;;;;;;;;6.25;6.25;;;;;18.89;55.67;101784.63;5012626;28;8835;-68
2023/09/15 10:51:57;;;;;;;;;8.00;5.50;;;;;18.93;55.37;101795.91;4995288;28;8831;-68
2023/09/15 10:54:25;;;;;;;;;13.00;11.75;;;;;18.93;55.39;101791.28;5004317;28;9550;-65
2023/09/15 10:56:52;;;;;;;;;9.50;8.25;;;;;18.99;55.78;101789.53;5032180;28;8837;-67
2023/09/15 10:59:19;;;;;;;;;15.25;11.00;;;;;19.03;56.79;101790.75;5031769;28;8833;-67
2023/09/15 11:01:45;;;;;;;;;13.75;12.00;;;;;19.10;57.51;101788.78;5032287;28;8837;-66
2023/09/15 11:04:17;;;;;;;;;17.00;13.00;;;;;19.05;58.35;101791.38;5032490;28;8818;-67
2023/09/15 11:06:51;;;;;;;;;11.00;11.00;;;;;19.06;57.84;101786.75;5031929;28;8849;-67
2023/09/15 11:09:20;;;;;;;;;5.75;5.75;;;;;19.12;56.83;101785.81;5030336;28;8846;-66
2023/09/15 11:11:48;;;;;;;;;10.00;10.00;;;;;19.11;56.59;101776.78;5032201;28;8829;-67
2023/09/15 11:14:24;;;;;;;;;9.00;9.00;;;;;19.24;56.28;101778.53;5012898;28;8833;-66
2023/09/15 11:16:53;;;;;;;;;14.75;13.75;;;;;19.23;56.75;101783.16;5011772;28;8853;-67
2023/09/15 11:19:26;;;;;;;;;17.00;16.50;;;;;19.35;56.38;101772.28;5012155;28;8835;-66
2023/09/15 11:21:52;;;;;;;;;11.25;11.25;;;;;19.35;56.85;101768.75;5012102;28;8831;-66
2023/09/15 11:24:19;;;;;;;;;7.00;7.00;;;;;19.34;56.50;101764.34;5012179;28;8827;-67